Marengo, IA (52301)

5:00 AM CST on February 13, 2016 (GMT -0600)
South West Btown | | Change Station
CLOSE
Current Station
Personal Weather Station
Location: Blairstown, IA
Elevation: 866 ft
Nearby Weather Stations
Active Advisory: Winter Weather Advisory

Elev 866 ft 41.91 °N, 92.09 °W | Updated 9 seconds ago

Mostly Cloudy
Mostly Cloudy
-0.0 °F
Feels Like 0 °F
N
0.0
Wind Variable Wind from NW
Gusts 0.0 mph

Today
High -- | Low -- °F
--% Chance of Precip.
Yesterday
High -- | Low -- °F
Precip. -- in
Pressure 30.67 in
Visibility 10.0 miles
Clouds Clear
Windchill 0 °F
Dew Point -4 °F
Humidity 81%
Rainfall 0.00 in
Snow Depth Not available.
7:07 AM 5:38 PM
Waxing Crescent, 29% visible
METAR KCID 131052Z 33005KT 10SM CLR M17/M21 A3061 RMK AO2 SLP386 T11721206
Pressure 30.67 in
Visibility 10.0 miles
Clouds Clear
Windchill 0 °F
Dew Point -4 °F
Humidity 81%
Rainfall 0.00 in
Snow Depth Not available.
7:07 AM 5:38 PM
Waxing Crescent, 29% visible
METAR KCID 131052Z 33005KT 10SM CLR M17/M21 A3061 RMK AO2 SLP386 T11721206

10-Day Weather Forecast

Almanac

Astronomy

Feb. 13, 2016 Rise Set
Actual Time
Civil Twilight
Nautical Twilight
Astronomical Twilight
Moon
Length of Visible Light
Length of Day
Tomorrow will be .
, % of the Moon is Illuminated

Today's Extremes

State Highs State Lows

Community

WunderPhotos

Upload Photos

1,892,537 photos uploaded!

WunderBlog® & News

Nearby

Air Quality

  Air Quality AQ Index Pollutant
Not available.

Snow Depth

Station Depth Elevation

Earthquake Activity

City Distance Mag. Time & Date
Minimum magnitude displayed is 2.5.

Coastal Water Temperatures

Place Temperature

Stations

Nearby Weather Stations

Station Location Temp. Windchill Dew Point Humidity Wind Precip. Elev Updated Type
                   

Watches & Warnings

Winter Weather Advisory
Issued: 3:38 AM CST Feb. 13, 2016 – National Weather Service

... Winter Weather Advisory in effect from 9 PM this evening to
6 PM CST Sunday...

The National Weather Service in Quad Cities has issued a Winter
Weather Advisory for snow... which is in effect from 9 PM this
evening to 6 PM CST Sunday.

* Timing... late this evening through the day on Sunday.

* Snow accumulations... 3 to 5 inches.

* Wind... southeast winds increasing to gusts over 25 mph later
tonight into Sunday morning.

* Temperatures... in the single digits and teens tonight and in the
20s on Sunday.

* Visibilities... less than a mile in heavier snow at times.

* Impacts... snow covered and hazardous roads and low visibility
in heavier snowfall.

Precautionary/preparedness actions...



Haase